createdAt,value
2022-12-01T00:00:06.497Z,5.40
2022-12-01T00:00:17.009Z,5.40
2022-12-01T00:00:27.514Z,5.42
2022-12-01T00:00:38.026Z,5.43
2022-12-01T00:00:48.529Z,5.39
2022-12-01T00:00:59.046Z,5.40
2022-12-01T00:01:09.564Z,5.42
2022-12-01T00:01:20.088Z,5.40
2022-12-01T00:01:30.562Z,5.40
2022-12-01T00:01:41.095Z,5.42
2022-12-01T00:01:51.692Z,5.39
2022-12-01T00:02:02.276Z,5.40
2022-12-01T00:02:12.795Z,5.39
2022-12-01T00:02:23.202Z,5.40
2022-12-01T00:02:33.708Z,5.39
2022-12-01T00:02:44.282Z,5.40
2022-12-01T00:02:54.740Z,5.42
2022-12-01T00:03:05.285Z,5.42
2022-12-01T00:03:15.784Z,5.42
2022-12-01T00:03:26.235Z,5.40
2022-12-01T00:03:36.648Z,5.40
2022-12-01T00:03:47.158Z,5.39
2022-12-01T00:03:57.664Z,5.40
2022-12-01T00:04:08.172Z,5.40
2022-12-01T00:04:18.683Z,5.39
2022-12-01T00:04:29.192Z,5.39
2022-12-01T00:04:39.699Z,5.39
2022-12-01T00:04:50.210Z,5.39
2022-12-01T00:05:00.718Z,5.40
2022-12-01T00:05:11.225Z,5.39
2022-12-01T00:05:21.754Z,5.39
2022-12-01T00:05:32.245Z,5.39
2022-12-01T00:05:42.744Z,5.40
2022-12-01T00:05:53.252Z,5.40
2022-12-01T00:06:03.758Z,5.42
2022-12-01T00:06:14.269Z,5.40
2022-12-01T00:06:24.775Z,5.40
2022-12-01T00:06:35.288Z,5.39
2022-12-01T00:06:45.786Z,5.39
2022-12-01T00:06:56.301Z,5.40
2022-12-01T00:07:06.803Z,5.42
2022-12-01T00:07:17.339Z,5.40
2022-12-01T00:07:27.863Z,5.42
2022-12-01T00:07:38.350Z,5.40
2022-12-01T00:07:48.881Z,5.40
2022-12-01T00:07:59.397Z,5.40
2022-12-01T00:08:09.913Z,5.40
2022-12-01T00:08:20.353Z,5.42
2022-12-01T00:08:30.862Z,5.42
2022-12-01T00:08:41.385Z,5.42
2022-12-01T00:08:51.889Z,5.39
2022-12-01T00:09:02.392Z,5.40
2022-12-01T00:09:17.955Z,5.40
2022-12-01T00:09:24.397Z,5.40
2022-12-01T00:09:33.902Z,5.40
2022-12-01T00:09:44.410Z,5.40
2022-12-01T00:09:54.917Z,5.39
2022-12-01T00:10:05.453Z,5.39
2022-12-01T00:10:15.928Z,5.42
2022-12-01T00:10:26.444Z,5.40
2022-12-01T00:10:36.959Z,5.40
2022-12-01T00:10:47.460Z,5.40
2022-12-01T00:10:57.965Z,5.42
2022-12-01T00:11:08.476Z,5.40
2022-12-01T00:11:18.988Z,5.42
2022-12-01T00:11:29.490Z,5.39
2022-12-01T00:11:39.999Z,5.40
2022-12-01T00:11:50.505Z,5.39
2022-12-01T00:12:01.013Z,5.42
2022-12-01T00:12:11.527Z,5.40
2022-12-01T00:12:22.031Z,5.39
2022-12-01T00:12:32.539Z,5.40
2022-12-01T00:12:43.042Z,5.42
2022-12-01T00:12:53.551Z,5.40
2022-12-01T00:13:04.063Z,5.40
2022-12-01T00:13:14.568Z,5.40
2022-12-01T00:13:25.069Z,5.40
2022-12-01T00:13:35.612Z,5.40
2022-12-01T00:13:46.082Z,5.40
2022-12-01T00:13:56.612Z,5.40
2022-12-01T00:14:07.099Z,5.42
2022-12-01T00:14:17.674Z,5.40
2022-12-01T00:14:28.111Z,5.40
2022-12-01T00:14:38.620Z,5.39
2022-12-01T00:14:49.128Z,5.40
2022-12-01T00:14:59.636Z,5.40
2022-12-01T00:15:10.144Z,5.40
2022-12-01T00:15:20.648Z,5.40
2022-12-01T00:15:31.156Z,5.40
2022-12-01T00:15:41.664Z,5.39
2022-12-01T00:15:52.165Z,5.40
2022-12-01T00:16:02.697Z,5.39
2022-12-01T00:16:13.276Z,5.40
2022-12-01T00:16:23.787Z,5.42
2022-12-01T00:16:34.325Z,5.42
2022-12-01T00:16:44.968Z,5.39
2022-12-01T00:16:55.252Z,5.39
2022-12-01T00:17:05.798Z,5.40
2022-12-01T00:17:16.232Z,5.40
2022-12-01T00:17:26.736Z,5.40
2022-12-01T00:17:37.238Z,5.40
2022-12-01T00:17:47.750Z,5.39
2022-12-01T00:17:58.253Z,5.39
2022-12-01T00:18:08.760Z,5.39
2022-12-01T00:18:19.271Z,5.39
2022-12-01T00:18:29.777Z,5.39
2022-12-01T00:18:40.303Z,5.39
2022-12-01T00:18:50.792Z,5.40
2022-12-01T00:19:01.303Z,5.40
2022-12-01T00:19:11.812Z,5.39
2022-12-01T00:19:22.317Z,5.39
2022-12-01T00:19:32.825Z,5.39
2022-12-01T00:19:43.335Z,5.38
2022-12-01T00:19:53.836Z,5.38
2022-12-01T00:20:04.351Z,5.38
2022-12-01T00:20:14.853Z,5.36
2022-12-01T00:20:25.401Z,5.33
2022-12-01T00:20:35.873Z,5.36
2022-12-01T00:20:46.375Z,5.36
2022-12-01T00:20:56.882Z,5.35
2022-12-01T00:21:07.388Z,5.35
2022-12-01T00:21:17.899Z,5.35
2022-12-01T00:21:28.406Z,5.35
2022-12-01T00:21:38.908Z,5.33
2022-12-01T00:21:49.416Z,5.35
2022-12-01T00:21:59.924Z,5.33
2022-12-01T00:22:10.432Z,5.33
2022-12-01T00:22:20.953Z,5.36
2022-12-01T00:22:31.448Z,5.33
2022-12-01T00:22:41.954Z,5.35
2022-12-01T00:22:52.464Z,5.35
2022-12-01T00:23:02.972Z,5.35
2022-12-01T00:23:13.483Z,5.35
2022-12-01T00:23:23.990Z,5.36
2022-12-01T00:23:34.496Z,5.36
2022-12-01T00:23:45.009Z,5.36
2022-12-01T00:23:55.530Z,5.35
2022-12-01T00:24:06.025Z,5.35
2022-12-01T00:24:16.534Z,5.38
2022-12-01T00:24:27.047Z,5.35
2022-12-01T00:24:37.554Z,5.36
2022-12-01T00:24:48.067Z,5.35
2022-12-01T00:24:58.567Z,5.38
2022-12-01T00:25:09.077Z,5.36
2022-12-01T00:25:19.623Z,5.36
2022-12-01T00:25:30.091Z,5.38
2022-12-01T00:25:40.602Z,5.36
2022-12-01T00:25:51.113Z,5.36
2022-12-01T00:26:01.621Z,5.36
2022-12-01T00:26:12.133Z,5.36
2022-12-01T00:26:22.635Z,5.38
2022-12-01T00:26:33.141Z,5.38
2022-12-01T00:26:43.651Z,5.38
2022-12-01T00:26:54.157Z,5.38
2022-12-01T00:27:04.669Z,5.36
2022-12-01T00:27:15.198Z,5.36
2022-12-01T00:27:25.683Z,5.38
2022-12-01T00:27:36.188Z,5.38
2022-12-01T00:27:46.698Z,5.38
2022-12-01T00:27:57.200Z,5.38
2022-12-01T00:28:07.709Z,5.38
2022-12-01T00:28:18.216Z,5.36
2022-12-01T00:28:28.723Z,5.39
2022-12-01T00:28:39.237Z,5.36
2022-12-01T00:28:49.740Z,5.36
2022-12-01T00:29:00.247Z,5.39
2022-12-01T00:29:10.756Z,5.38
2022-12-01T00:29:21.263Z,5.39
2022-12-01T00:29:31.766Z,5.38
2022-12-01T00:29:42.274Z,5.40
2022-12-01T00:29:52.782Z,5.38
2022-12-01T00:30:03.289Z,5.38
2022-12-01T00:30:13.797Z,5.39
2022-12-01T00:30:24.307Z,5.38
2022-12-01T00:30:34.834Z,5.38
2022-12-01T00:30:45.326Z,5.39
2022-12-01T00:30:55.834Z,5.38
2022-12-01T00:31:06.345Z,5.38
2022-12-01T00:31:16.955Z,5.38
2022-12-01T00:31:27.433Z,5.38
2022-12-01T00:31:37.973Z,5.38
2022-12-01T00:31:48.410Z,5.38
2022-12-01T00:31:58.957Z,5.38
2022-12-01T00:32:09.447Z,5.38
2022-12-01T00:32:19.908Z,5.36
2022-12-01T00:32:30.416Z,5.38
2022-12-01T00:32:40.924Z,5.38
2022-12-01T00:32:51.437Z,5.40
2022-12-01T00:33:01.941Z,5.38
2022-12-01T00:33:12.446Z,5.38
2022-12-01T00:33:22.983Z,5.36
2022-12-01T00:33:33.465Z,5.36
2022-12-01T00:33:43.974Z,5.38
2022-12-01T00:33:54.482Z,5.36
2022-12-01T00:34:09.663Z,5.35
2022-12-01T00:34:16.512Z,5.38
2022-12-01T00:34:26.006Z,5.35
2022-12-01T00:34:36.514Z,5.36
2022-12-01T00:34:47.022Z,5.38
2022-12-01T00:34:57.529Z,5.36
2022-12-01T00:35:08.038Z,5.38
2022-12-01T00:35:18.552Z,5.36
2022-12-01T00:35:29.077Z,5.36
2022-12-01T00:35:39.567Z,5.35
2022-12-01T00:35:50.072Z,5.36
2022-12-01T00:36:00.581Z,5.35
2022-12-01T00:36:11.088Z,5.36
2022-12-01T00:36:21.629Z,5.35
2022-12-01T00:36:32.104Z,5.35
2022-12-01T00:36:42.611Z,5.35
2022-12-01T00:36:53.120Z,5.36
2022-12-01T00:37:03.623Z,5.36
2022-12-01T00:37:14.132Z,5.36
2022-12-01T00:37:24.639Z,5.36
2022-12-01T00:37:35.148Z,5.36
2022-12-01T00:37:45.656Z,5.35
2022-12-01T00:37:56.165Z,5.36
2022-12-01T00:38:06.678Z,5.36
2022-12-01T00:38:17.178Z,5.38
2022-12-01T00:38:27.685Z,5.35
2022-12-01T00:38:38.201Z,5.36
2022-12-01T00:38:48.700Z,5.36
2022-12-01T00:38:59.219Z,5.35
2022-12-01T00:39:09.735Z,5.36
2022-12-01T00:39:20.219Z,5.35
2022-12-01T00:39:30.726Z,5.38
2022-12-01T00:39:41.235Z,5.35
2022-12-01T00:39:51.971Z,5.36
2022-12-01T00:40:02.256Z,5.35
2022-12-01T00:40:12.764Z,5.35
2022-12-01T00:40:23.267Z,5.35
2022-12-01T00:40:33.782Z,5.36
2022-12-01T00:40:44.284Z,5.35
2022-12-01T00:40:54.791Z,5.35
2022-12-01T00:41:05.308Z,5.35
2022-12-01T00:41:15.804Z,5.35
2022-12-01T00:41:26.328Z,5.35
2022-12-01T00:41:36.816Z,5.31
2022-12-01T00:41:47.324Z,5.33
2022-12-01T00:41:57.837Z,5.35
2022-12-01T00:42:13.068Z,5.35
2022-12-01T00:42:19.850Z,5.35
2022-12-01T00:42:29.357Z,5.33
2022-12-01T00:42:39.864Z,5.33
2022-12-01T00:42:50.368Z,5.35
2022-12-01T00:43:00.875Z,5.35
2022-12-01T00:43:11.386Z,5.35
2022-12-01T00:43:21.891Z,5.35
2022-12-01T00:43:32.399Z,5.35
2022-12-01T00:43:42.906Z,5.31
2022-12-01T00:43:53.438Z,5.35
2022-12-01T00:44:03.918Z,5.33
2022-12-01T00:44:14.427Z,5.35
2022-12-01T00:44:24.928Z,5.35
2022-12-01T00:44:35.437Z,5.33
2022-12-01T00:44:45.944Z,5.33
2022-12-01T00:44:56.452Z,5.35
2022-12-01T00:45:06.962Z,5.35
2022-12-01T00:45:17.481Z,5.33
2022-12-01T00:45:27.974Z,5.33
2022-12-01T00:45:38.540Z,5.33
2022-12-01T00:45:49.053Z,5.33
2022-12-01T00:45:59.532Z,5.36
2022-12-01T00:46:10.099Z,5.35
2022-12-01T00:46:20.585Z,5.35
2022-12-01T00:46:31.121Z,5.33
2022-12-01T00:46:41.534Z,5.35
2022-12-01T00:46:52.046Z,5.35
2022-12-01T00:47:02.546Z,5.35
2022-12-01T00:47:13.051Z,5.33
2022-12-01T00:47:23.557Z,5.35
2022-12-01T00:47:34.062Z,5.35
2022-12-01T00:47:44.569Z,5.35
2022-12-01T00:47:55.072Z,5.35
2022-12-01T00:48:05.583Z,5.35
2022-12-01T00:48:16.088Z,5.33
2022-12-01T00:48:26.592Z,5.35
2022-12-01T00:48:37.099Z,5.33
2022-12-01T00:48:47.611Z,5.33
2022-12-01T00:48:58.134Z,5.35
2022-12-01T00:49:08.621Z,5.33
2022-12-01T00:49:19.127Z,5.36
2022-12-01T00:49:29.636Z,5.35
2022-12-01T00:49:40.143Z,5.35
2022-12-01T00:49:50.868Z,5.33
2022-12-01T00:50:01.151Z,5.33
2022-12-01T00:50:11.661Z,5.33
2022-12-01T00:50:22.163Z,5.33
2022-12-01T00:50:32.693Z,5.33
2022-12-01T00:50:43.173Z,5.31
2022-12-01T00:50:53.682Z,5.30
2022-12-01T00:51:04.188Z,5.33
2022-12-01T00:51:14.700Z,5.31
2022-12-01T00:51:25.208Z,5.31
2022-12-01T00:51:35.713Z,5.31
2022-12-01T00:51:46.233Z,5.33
2022-12-01T00:51:56.730Z,5.33
2022-12-01T00:52:07.231Z,5.31
2022-12-01T00:52:17.735Z,5.31
2022-12-01T00:52:28.242Z,5.31
2022-12-01T00:52:38.750Z,5.33
2022-12-01T00:52:49.257Z,5.31
2022-12-01T00:52:59.760Z,5.31
2022-12-01T00:53:10.268Z,5.31
2022-12-01T00:53:20.776Z,5.33
2022-12-01T00:53:31.285Z,5.31
2022-12-01T00:53:41.788Z,5.31
2022-12-01T00:53:52.296Z,5.31
2022-12-01T00:54:02.802Z,5.33
2022-12-01T00:54:13.307Z,5.33
2022-12-01T00:54:23.841Z,5.33
2022-12-01T00:54:34.325Z,5.31
2022-12-01T00:54:44.834Z,5.33
2022-12-01T00:54:55.344Z,5.30
2022-12-01T00:55:05.846Z,5.31
2022-12-01T00:55:16.354Z,5.30
2022-12-01T00:55:26.861Z,5.33
2022-12-01T00:55:37.375Z,5.31
2022-12-01T00:55:47.879Z,5.33
2022-12-01T00:55:58.387Z,5.35
2022-12-01T00:56:08.898Z,5.36
2022-12-01T00:56:19.408Z,5.33
2022-12-01T00:56:29.917Z,5.33
2022-12-01T00:56:40.424Z,5.33
2022-12-01T00:56:50.933Z,5.33
2022-12-01T00:57:01.439Z,5.33
2022-12-01T00:57:11.948Z,5.33
2022-12-01T00:57:22.457Z,5.35
2022-12-01T00:57:32.959Z,5.31
2022-12-01T00:57:43.469Z,5.33
2022-12-01T00:57:53.976Z,5.31
2022-12-01T00:58:04.480Z,5.33
2022-12-01T00:58:14.987Z,5.33
2022-12-01T00:58:25.494Z,5.33
2022-12-01T00:58:36.002Z,5.33
2022-12-01T00:58:46.509Z,5.33
2022-12-01T00:58:57.014Z,5.33
2022-12-01T00:59:07.547Z,5.31
2022-12-01T00:59:18.030Z,5.33
2022-12-01T00:59:28.533Z,5.31
2022-12-01T00:59:39.041Z,5.33
2022-12-01T00:59:49.929Z,5.33
2022-12-01T01:00:00.058Z,5.33
2022-12-01T01:00:10.582Z,5.33
2022-12-01T01:00:21.080Z,5.33
2022-12-01T01:00:31.578Z,5.33
2022-12-01T01:00:42.087Z,5.33
2022-12-01T01:00:52.632Z,5.33
2022-12-01T01:01:03.183Z,5.36
2022-12-01T01:01:13.631Z,5.33
2022-12-01T01:01:24.171Z,5.33
2022-12-01T01:01:34.638Z,5.33
2022-12-01T01:01:45.165Z,5.35
2022-12-01T01:01:55.697Z,5.31
2022-12-01T01:02:06.173Z,5.33
2022-12-01T01:02:16.770Z,5.31
2022-12-01T01:02:27.312Z,5.31
2022-12-01T01:02:37.687Z,5.30
2022-12-01T01:02:48.231Z,5.30
2022-12-01T01:02:58.669Z,5.31
2022-12-01T01:03:09.178Z,5.30
2022-12-01T01:03:19.686Z,5.30
2022-12-01T01:03:30.196Z,5.28
2022-12-01T01:03:40.723Z,5.30
2022-12-01T01:03:51.207Z,5.31
2022-12-01T01:04:01.723Z,5.30
2022-12-01T01:04:12.221Z,5.31
2022-12-01T01:04:22.735Z,5.31
2022-12-01T01:04:33.239Z,5.30
2022-12-01T01:04:43.747Z,5.28
2022-12-01T01:04:54.257Z,5.31
2022-12-01T01:05:04.764Z,5.31
2022-12-01T01:05:15.267Z,5.30
2022-12-01T01:05:25.789Z,5.31
2022-12-01T01:05:36.302Z,5.31
2022-12-01T01:05:46.793Z,5.30
2022-12-01T01:05:57.293Z,5.31
2022-12-01T01:06:07.801Z,5.31
2022-12-01T01:06:18.309Z,5.31
2022-12-01T01:06:28.813Z,5.28
2022-12-01T01:06:39.321Z,5.31
2022-12-01T01:06:49.831Z,5.31
2022-12-01T01:07:00.338Z,5.31
2022-12-01T01:07:10.847Z,5.30
2022-12-01T01:07:21.395Z,5.31
2022-12-01T01:07:31.921Z,5.30
2022-12-01T01:07:42.431Z,5.31
2022-12-01T01:07:52.916Z,5.30
2022-12-01T01:08:03.455Z,5.31
2022-12-01T01:08:13.904Z,5.28
2022-12-01T01:08:24.385Z,5.31
2022-12-01T01:08:34.895Z,5.30
2022-12-01T01:08:45.397Z,5.30
2022-12-01T01:08:55.906Z,5.31
2022-12-01T01:09:06.424Z,5.30
2022-12-01T01:09:16.918Z,5.30
2022-12-01T01:09:27.420Z,5.31
2022-12-01T01:09:37.928Z,5.31
2022-12-01T01:09:48.650Z,5.33
2022-12-01T01:09:58.940Z,5.31
2022-12-01T01:10:09.439Z,5.31
2022-12-01T01:10:19.947Z,5.33
2022-12-01T01:10:30.451Z,5.31
2022-12-01T01:10:40.959Z,5.31
2022-12-01T01:10:51.460Z,5.33
2022-12-01T01:11:01.976Z,5.31
2022-12-01T01:11:12.473Z,5.31
2022-12-01T01:11:22.975Z,5.33
2022-12-01T01:11:33.493Z,5.33
2022-12-01T01:11:43.994Z,5.33
2022-12-01T01:11:54.490Z,5.33
2022-12-01T01:12:04.999Z,5.33
2022-12-01T01:12:15.502Z,5.33
2022-12-01T01:12:26.013Z,5.31
2022-12-01T01:12:36.512Z,5.31
2022-12-01T01:12:47.020Z,5.31
2022-12-01T01:12:57.524Z,5.31
2022-12-01T01:13:08.037Z,5.28
2022-12-01T01:13:18.537Z,5.33
2022-12-01T01:13:29.046Z,5.31
2022-12-01T01:13:39.549Z,5.31
2022-12-01T01:13:50.061Z,5.30
2022-12-01T01:14:00.562Z,5.28
2022-12-01T01:14:11.113Z,5.30
2022-12-01T01:14:21.575Z,5.30
2022-12-01T01:14:32.087Z,5.28
2022-12-01T01:14:42.586Z,5.30
2022-12-01T01:14:53.095Z,5.30
2022-12-01T01:15:03.593Z,5.30
2022-12-01T01:15:14.101Z,5.28
2022-12-01T01:15:24.606Z,5.30
2022-12-01T01:15:35.123Z,5.31
2022-12-01T01:15:45.619Z,5.30
2022-12-01T01:15:56.127Z,5.31
2022-12-01T01:16:06.625Z,5.31
2022-12-01T01:16:17.212Z,5.31
2022-12-01T01:16:27.686Z,5.30
2022-12-01T01:16:38.197Z,5.30
2022-12-01T01:16:48.712Z,5.30
2022-12-01T01:16:59.267Z,5.31
2022-12-01T01:17:09.684Z,5.30
2022-12-01T01:17:20.173Z,5.30
2022-12-01T01:17:30.666Z,5.31
2022-12-01T01:17:41.180Z,5.30
2022-12-01T01:17:51.684Z,5.31
2022-12-01T01:18:02.199Z,5.31
2022-12-01T01:18:12.690Z,5.30
2022-12-01T01:18:23.197Z,5.33
2022-12-01T01:18:33.699Z,5.31
2022-12-01T01:18:44.208Z,5.31
2022-12-01T01:18:54.710Z,5.28
2022-12-01T01:19:05.232Z,5.31
2022-12-01T01:19:15.756Z,5.30
2022-12-01T01:19:26.236Z,5.30
2022-12-01T01:19:36.731Z,5.31
2022-12-01T01:19:47.499Z,5.30
2022-12-01T01:19:57.743Z,5.30
2022-12-01T01:20:08.250Z,5.31
2022-12-01T01:20:18.753Z,5.30
2022-12-01T01:20:29.262Z,5.30
2022-12-01T01:20:39.783Z,5.30
2022-12-01T01:20:50.273Z,5.30
2022-12-01T01:21:00.783Z,5.31
2022-12-01T01:21:11.284Z,5.30
2022-12-01T01:21:21.786Z,5.31
2022-12-01T01:21:32.296Z,5.31
2022-12-01T01:21:42.797Z,5.28
2022-12-01T01:21:53.305Z,5.31
2022-12-01T01:22:03.807Z,5.28
2022-12-01T01:22:14.317Z,5.31
2022-12-01T01:22:24.819Z,5.30
2022-12-01T01:22:35.328Z,5.28
2022-12-01T01:22:45.830Z,5.31
2022-12-01T01:22:56.345Z,5.30
2022-12-01T01:23:06.841Z,5.31
2022-12-01T01:23:17.350Z,5.30
2022-12-01T01:23:27.852Z,5.28
2022-12-01T01:23:38.362Z,5.30
2022-12-01T01:23:48.863Z,5.28
2022-12-01T01:23:59.372Z,5.28
2022-12-01T01:24:09.876Z,5.28
2022-12-01T01:24:20.400Z,5.27
2022-12-01T01:24:30.886Z,5.28
2022-12-01T01:24:41.395Z,5.28
2022-12-01T01:24:51.901Z,5.27
2022-12-01T01:25:02.404Z,5.27
2022-12-01T01:25:12.907Z,5.27
2022-12-01T01:25:23.416Z,5.27
2022-12-01T01:25:33.917Z,5.28
2022-12-01T01:25:44.432Z,5.27
2022-12-01T01:25:54.954Z,5.27
2022-12-01T01:26:05.440Z,5.27
2022-12-01T01:26:15.947Z,5.25
2022-12-01T01:26:26.452Z,5.27
2022-12-01T01:26:36.958Z,5.27
2022-12-01T01:26:47.484Z,5.27
2022-12-01T01:26:57.968Z,5.27
2022-12-01T01:27:08.479Z,5.27
2022-12-01T01:27:18.977Z,5.27
2022-12-01T01:27:29.487Z,5.28
2022-12-01T01:27:39.991Z,5.27
2022-12-01T01:27:50.498Z,5.27
2022-12-01T01:28:01.002Z,5.28
2022-12-01T01:28:11.529Z,5.28
2022-12-01T01:28:22.018Z,5.28
2022-12-01T01:28:32.530Z,5.27
2022-12-01T01:28:43.027Z,5.28
2022-12-01T01:28:53.532Z,5.28
2022-12-01T01:29:04.034Z,5.25
2022-12-01T01:29:14.544Z,5.28
2022-12-01T01:29:25.047Z,5.28
2022-12-01T01:29:35.551Z,5.28
2022-12-01T01:29:46.330Z,5.27
2022-12-01T01:29:56.565Z,5.28
2022-12-01T01:30:07.083Z,5.28
2022-12-01T01:30:17.597Z,5.28
2022-12-01T01:30:28.147Z,5.28
2022-12-01T01:30:38.633Z,5.28
2022-12-01T01:30:49.170Z,5.27
2022-12-01T01:30:59.638Z,5.27
2022-12-01T01:31:10.195Z,5.28
2022-12-01T01:31:20.719Z,5.28
2022-12-01T01:31:31.132Z,5.30
2022-12-01T01:31:41.637Z,5.27
2022-12-01T01:31:52.138Z,5.27
2022-12-01T01:32:02.648Z,5.28
2022-12-01T01:32:13.155Z,5.27
2022-12-01T01:32:23.660Z,5.25
2022-12-01T01:32:34.163Z,5.30
2022-12-01T01:32:44.667Z,5.28
2022-12-01T01:32:55.173Z,5.28
2022-12-01T01:33:05.684Z,5.25
2022-12-01T01:33:16.217Z,5.27
2022-12-01T01:33:26.696Z,5.27
2022-12-01T01:33:37.201Z,5.27
2022-12-01T01:33:47.705Z,5.27
2022-12-01T01:33:58.209Z,5.27
2022-12-01T01:34:08.717Z,5.25
2022-12-01T01:34:19.221Z,5.27
2022-12-01T01:34:29.731Z,5.25
2022-12-01T01:34:40.230Z,5.25
2022-12-01T01:34:50.739Z,5.27
2022-12-01T01:35:01.245Z,5.24
2022-12-01T01:35:11.754Z,5.24
2022-12-01T01:35:22.259Z,5.24
2022-12-01T01:35:32.767Z,5.25
2022-12-01T01:35:43.295Z,5.24
2022-12-01T01:35:53.781Z,5.24
2022-12-01T01:36:04.284Z,5.22
2022-12-01T01:36:14.797Z,5.22
2022-12-01T01:36:25.304Z,5.24
2022-12-01T01:36:35.817Z,5.22
2022-12-01T01:36:46.319Z,5.22
2022-12-01T01:36:56.829Z,5.21
2022-12-01T01:37:07.353Z,5.22
2022-12-01T01:37:17.851Z,5.24
2022-12-01T01:37:28.349Z,5.22
2022-12-01T01:37:38.860Z,5.22
2022-12-01T01:37:49.361Z,5.22
2022-12-01T01:37:59.874Z,5.22
2022-12-01T01:38:10.377Z,5.21
2022-12-01T01:38:20.885Z,5.24
2022-12-01T01:38:31.393Z,5.22
2022-12-01T01:38:41.900Z,5.22
2022-12-01T01:38:52.403Z,5.21
2022-12-01T01:39:02.911Z,5.21
2022-12-01T01:39:13.414Z,5.22
2022-12-01T01:39:23.923Z,5.22
2022-12-01T01:39:34.430Z,5.21
2022-12-01T01:39:44.939Z,5.24
2022-12-01T01:39:55.441Z,5.21
2022-12-01T01:40:05.951Z,5.21
2022-12-01T01:40:16.456Z,5.22
2022-12-01T01:40:26.968Z,5.21
2022-12-01T01:40:37.476Z,5.21
2022-12-01T01:40:47.977Z,5.20
2022-12-01T01:40:58.479Z,5.18
2022-12-01T01:41:08.987Z,5.20
2022-12-01T01:41:19.490Z,5.20
2022-12-01T01:41:29.998Z,5.17
2022-12-01T01:41:40.519Z,5.17
2022-12-01T01:41:51.009Z,5.17
2022-12-01T01:42:01.527Z,5.18
2022-12-01T01:42:12.042Z,5.17
2022-12-01T01:42:22.523Z,5.17
2022-12-01T01:42:33.033Z,5.17
2022-12-01T01:42:43.535Z,5.17
2022-12-01T01:42:54.046Z,5.15
2022-12-01T01:43:04.546Z,5.17
2022-12-01T01:43:15.055Z,5.17
2022-12-01T01:43:25.568Z,5.15
2022-12-01T01:43:36.072Z,5.15
2022-12-01T01:43:46.583Z,5.15
2022-12-01T01:43:57.081Z,5.15
2022-12-01T01:44:07.584Z,5.15
2022-12-01T01:44:18.114Z,5.17
2022-12-01T01:44:28.600Z,5.15
2022-12-01T01:44:39.108Z,5.15
2022-12-01T01:44:49.611Z,5.17
2022-12-01T01:45:00.137Z,5.17
2022-12-01T01:45:10.620Z,5.15
2022-12-01T01:45:21.131Z,5.17
2022-12-01T01:45:31.632Z,5.15
2022-12-01T01:45:42.225Z,5.13
2022-12-01T01:45:52.676Z,5.15
2022-12-01T01:46:03.184Z,5.13
2022-12-01T01:46:13.741Z,5.13
2022-12-01T01:46:24.219Z,5.13
2022-12-01T01:46:34.788Z,5.12
2022-12-01T01:46:45.177Z,5.13
2022-12-01T01:46:55.676Z,5.13
2022-12-01T01:47:06.184Z,5.13
2022-12-01T01:47:16.690Z,5.12
2022-12-01T01:47:27.218Z,5.13
2022-12-01T01:47:37.703Z,5.13
2022-12-01T01:47:48.233Z,5.12
2022-12-01T01:47:58.713Z,5.15
2022-12-01T01:48:09.221Z,5.12
2022-12-01T01:48:19.727Z,5.12
2022-12-01T01:48:30.230Z,5.12
2022-12-01T01:48:40.740Z,5.12
2022-12-01T01:48:51.262Z,5.13
2022-12-01T01:49:01.751Z,5.15
2022-12-01T01:49:12.257Z,5.13
2022-12-01T01:49:22.768Z,5.13
2022-12-01T01:49:33.273Z,5.12
2022-12-01T01:49:43.777Z,5.13
2022-12-01T01:49:54.284Z,5.13
2022-12-01T01:50:04.804Z,5.12
2022-12-01T01:50:15.297Z,5.12
2022-12-01T01:50:25.807Z,5.13
2022-12-01T01:50:36.314Z,5.12
2022-12-01T01:50:46.845Z,5.13
2022-12-01T01:50:57.330Z,5.13
2022-12-01T01:51:07.835Z,5.13
2022-12-01T01:51:18.345Z,5.10
2022-12-01T01:51:28.847Z,5.13
2022-12-01T01:51:39.354Z,5.13
2022-12-01T01:51:49.864Z,5.13
2022-12-01T01:52:00.370Z,5.13
2022-12-01T01:52:10.882Z,5.15
2022-12-01T01:52:21.386Z,5.13
2022-12-01T01:52:31.895Z,5.13
2022-12-01T01:52:42.402Z,5.13
2022-12-01T01:52:52.913Z,5.13
2022-12-01T01:53:03.418Z,5.13
2022-12-01T01:53:13.928Z,5.13
2022-12-01T01:53:24.430Z,5.12
2022-12-01T01:53:34.934Z,5.13
2022-12-01T01:53:45.448Z,5.13
2022-12-01T01:53:55.967Z,5.15
2022-12-01T01:54:06.454Z,5.15
2022-12-01T01:54:16.964Z,5.13
2022-12-01T01:54:27.476Z,5.13
2022-12-01T01:54:37.975Z,5.15
2022-12-01T01:54:48.480Z,5.15
2022-12-01T01:54:58.997Z,5.15
2022-12-01T01:55:09.500Z,5.13
2022-12-01T01:55:20.000Z,5.15
2022-12-01T01:55:30.529Z,5.12
2022-12-01T01:55:41.016Z,5.15
2022-12-01T01:55:51.524Z,5.13
2022-12-01T01:56:02.027Z,5.15
2022-12-01T01:56:12.535Z,5.15
2022-12-01T01:56:23.044Z,5.13
2022-12-01T01:56:33.549Z,5.12
2022-12-01T01:56:44.054Z,5.12
2022-12-01T01:56:54.561Z,5.15
2022-12-01T01:57:05.067Z,5.13
2022-12-01T01:57:15.576Z,5.13
2022-12-01T01:57:26.097Z,5.13
2022-12-01T01:57:36.592Z,5.12
2022-12-01T01:57:47.092Z,5.10
2022-12-01T01:57:57.609Z,5.13
2022-12-01T01:58:08.108Z,5.13
2022-12-01T01:58:18.615Z,5.12
2022-12-01T01:58:29.124Z,5.13
2022-12-01T01:58:39.630Z,5.12
2022-12-01T01:58:50.140Z,5.13
2022-12-01T01:59:00.646Z,5.12
2022-12-01T01:59:11.171Z,5.13
2022-12-01T01:59:21.664Z,5.13
2022-12-01T01:59:32.188Z,5.15
2022-12-01T01:59:42.681Z,5.12
2022-12-01T01:59:53.184Z,5.15
2022-12-01T02:00:03.705Z,5.13
2022-12-01T02:00:14.199Z,5.12
2022-12-01T02:00:24.708Z,5.12
2022-12-01T02:00:35.214Z,5.12
2022-12-01T02:00:45.721Z,5.15
2022-12-01T02:00:56.316Z,5.13
2022-12-01T02:01:06.810Z,5.12
2022-12-01T02:01:17.423Z,5.15
2022-12-01T02:01:27.873Z,5.13
2022-12-01T02:01:38.320Z,5.15
2022-12-01T02:01:48.829Z,5.13
2022-12-01T02:01:59.278Z,5.15
2022-12-01T02:02:09.835Z,5.15
2022-12-01T02:02:20.343Z,5.15
2022-12-01T02:02:30.878Z,5.13
2022-12-01T02:02:41.340Z,5.13
2022-12-01T02:02:51.908Z,5.15
2022-12-01T02:03:02.414Z,5.13
2022-12-01T02:03:12.822Z,5.12
2022-12-01T02:03:23.334Z,5.12
2022-12-01T02:03:33.840Z,5.15
2022-12-01T02:03:44.366Z,5.12
2022-12-01T02:03:54.871Z,5.12
2022-12-01T02:04:05.363Z,5.15
2022-12-01T02:04:15.866Z,5.13
2022-12-01T02:04:26.373Z,5.12
2022-12-01T02:04:36.879Z,5.12
2022-12-01T02:04:47.384Z,5.13
2022-12-01T02:04:57.922Z,5.13
2022-12-01T02:05:08.397Z,5.10
2022-12-01T02:05:18.904Z,5.12
2022-12-01T02:05:29.416Z,5.13
2022-12-01T02:05:39.914Z,5.10
2022-12-01T02:05:50.437Z,5.12
2022-12-01T02:06:04.855Z,5.10
2022-12-01T02:06:11.434Z,5.10
2022-12-01T02:06:21.939Z,5.10
2022-12-01T02:06:32.443Z,5.09
2022-12-01T02:06:42.950Z,5.12
2022-12-01T02:06:53.455Z,5.09
2022-12-01T02:07:03.962Z,5.10
2022-12-01T02:07:14.468Z,5.09
2022-12-01T02:07:25.016Z,5.09
2022-12-01T02:07:35.556Z,5.09
2022-12-01T02:07:46.018Z,5.09
2022-12-01T02:07:56.621Z,5.09
2022-12-01T02:08:07.054Z,5.09
2022-12-01T02:08:17.499Z,5.07
2022-12-01T02:08:28.004Z,5.06
2022-12-01T02:08:38.513Z,5.07
2022-12-01T02:08:49.017Z,5.09
2022-12-01T02:08:59.521Z,5.07
2022-12-01T02:09:10.036Z,5.07
2022-12-01T02:09:20.537Z,5.07
2022-12-01T02:09:31.039Z,5.09
2022-12-01T02:09:41.548Z,5.07
2022-12-01T02:09:52.161Z,5.06
2022-12-01T02:10:02.578Z,5.09
2022-12-01T02:10:13.068Z,5.07
2022-12-01T02:10:23.574Z,5.07
2022-12-01T02:10:34.080Z,5.07
2022-12-01T02:10:44.588Z,5.07
2022-12-01T02:10:55.095Z,5.07
2022-12-01T02:11:05.605Z,5.07
2022-12-01T02:11:16.108Z,5.07
2022-12-01T02:11:26.633Z,5.07
2022-12-01T02:11:37.119Z,5.09
2022-12-01T02:11:47.649Z,5.07
2022-12-01T02:11:58.135Z,5.07
2022-12-01T02:12:08.640Z,5.07
2022-12-01T02:12:19.147Z,5.07
2022-12-01T02:12:29.651Z,5.07
2022-12-01T02:12:40.159Z,5.07
2022-12-01T02:12:50.662Z,5.07
2022-12-01T02:13:01.167Z,5.07
2022-12-01T02:13:11.677Z,5.07
2022-12-01T02:13:22.183Z,5.07
2022-12-01T02:13:32.693Z,5.06
2022-12-01T02:13:43.196Z,5.06
2022-12-01T02:13:53.705Z,5.06
2022-12-01T02:14:04.218Z,5.06
2022-12-01T02:14:14.717Z,5.03
2022-12-01T02:14:25.223Z,5.04
2022-12-01T02:14:35.727Z,5.04
2022-12-01T02:14:46.234Z,5.03
2022-12-01T02:14:56.740Z,5.04
2022-12-01T02:15:07.249Z,5.04
2022-12-01T02:15:17.749Z,5.04
2022-12-01T02:15:28.259Z,5.04
2022-12-01T02:15:38.766Z,5.04
2022-12-01T02:15:49.272Z,5.02
2022-12-01T02:15:59.778Z,5.03
2022-12-01T02:16:10.302Z,5.02
2022-12-01T02:16:20.833Z,5.03
2022-12-01T02:16:31.396Z,5.03
2022-12-01T02:16:41.841Z,5.03
2022-12-01T02:16:52.333Z,5.03
2022-12-01T02:17:02.862Z,5.04
2022-12-01T02:17:13.327Z,5.03
2022-12-01T02:17:23.835Z,5.03
2022-12-01T02:17:38.821Z,5.04
2022-12-01T02:17:45.858Z,5.02
2022-12-01T02:17:55.359Z,5.04
2022-12-01T02:18:05.867Z,5.04
2022-12-01T02:18:16.379Z,5.04
2022-12-01T02:18:26.895Z,5.03
2022-12-01T02:18:37.393Z,5.02
2022-12-01T02:18:47.897Z,5.03
2022-12-01T02:18:58.408Z,5.02
2022-12-01T02:19:08.909Z,5.04
2022-12-01T02:19:19.420Z,5.04
2022-12-01T02:19:29.926Z,5.04
2022-12-01T02:19:40.433Z,5.03
2022-12-01T02:19:51.203Z,5.03